Time;durP1;ratioP1;P1;durP2;ratioP2;P2;SDS_P1;SDS_P2;PMS_P1;PMS_P2;Temp;Humidity;BMP_temperature;BMP_pressure;BME280_temperature;BME280_humidity;BME280_pressure;Samples;Min_cycle;Max_cycle;Signal;HPM_P1;HPM_P2
2023/09/08 00:01:24;;;;;;;1.27;0.60;;;;;;;28.01;33.76;100891.28;5007824;28;20060;-75
2023/09/08 00:03:53;;;;;;;2.65;0.73;;;;;;;28.06;33.07;100894.66;5003534;28;20053;-74
2023/09/08 00:06:21;;;;;;;5.22;0.80;;;;;;;28.11;32.34;100890.00;4996933;28;20061;-75
2023/09/08 00:08:52;;;;;;;1.90;0.80;;;;;;;28.02;33.00;100890.38;4998548;28;20042;-74
2023/09/08 00:11:22;;;;;;;1.55;0.70;;;;;;;27.83;33.53;100884.03;4996404;28;20509;-73
2023/09/08 00:13:51;;;;;;;1.42;0.65;;;;;;;27.63;32.67;100893.69;5002162;28;20054;-75
2023/09/08 00:16:19;;;;;;;1.50;0.70;;;;;;;27.46;33.33;100890.78;5006788;28;20712;-75
2023/09/08 00:18:48;;;;;;;1.23;0.65;;;;;;;27.33;33.89;100885.97;5004364;28;20054;-76
2023/09/08 00:21:18;;;;;;;1.20;0.70;;;;;;;27.20;34.38;100883.81;5008823;28;20057;-76
2023/09/08 00:23:47;;;;;;;1.25;0.65;;;;;;;27.06;35.08;100890.50;5001951;28;20056;-74
2023/09/08 00:26:15;;;;;;;1.30;0.70;;;;;;;26.84;35.21;100887.75;5003449;28;20050;-75
2023/09/08 00:28:46;;;;;;;1.48;0.70;;;;;;;26.72;35.23;100886.41;4997796;28;20616;-76
2023/09/08 00:31:16;;;;;;;1.67;0.60;;;;;;;26.66;35.88;100888.41;5012210;28;20049;-75
2023/09/08 00:33:44;;;;;;;2.78;0.70;;;;;;;26.56;36.07;100885.22;5005045;28;20069;-75
2023/09/08 00:36:13;;;;;;;1.95;0.88;;;;;;;26.43;36.34;100890.03;5002447;28;20058;-74
2023/09/08 00:38:41;;;;;;;3.83;0.70;;;;;;;26.33;36.50;100885.97;5000331;28;20055;-75
2023/09/08 00:41:10;;;;;;;4.07;0.80;;;;;;;26.24;36.41;100884.50;5004502;28;20500;-72
2023/09/08 00:43:38;;;;;;;1.40;0.75;;;;;;;26.04;36.61;100890.44;5014789;28;20096;-73
2023/09/08 00:46:12;;;;;;;2.80;0.52;;;;;;;25.83;36.96;100893.75;5001216;28;20062;-75
2023/09/08 00:48:41;;;;;;;4.18;0.80;;;;;;;25.76;37.39;100894.88;5000546;28;20045;-74
2023/09/08 00:51:11;;;;;;;1.33;0.80;;;;;;;25.71;38.03;100898.53;5003212;28;20057;-76
2023/09/08 00:53:39;;;;;;;3.30;0.70;;;;;;;25.60;39.12;100889.19;4999386;28;20058;-75
2023/09/08 00:56:10;;;;;;;1.73;0.73;;;;;;;25.59;39.09;100898.91;4992258;28;20053;-76
2023/09/08 00:58:39;;;;;;;5.63;0.70;;;;;;;25.56;40.06;100900.78;5004513;28;20054;-76
2023/09/08 01:01:09;;;;;;;3.80;0.70;;;;;;;25.45;39.69;100891.41;5001788;28;20109;-75
2023/09/08 01:03:38;;;;;;;4.28;0.90;;;;;;;25.45;38.55;100896.69;4999645;28;20050;-75
2023/09/08 01:06:07;;;;;;;1.90;0.75;;;;;;;25.43;38.43;100903.81;4998264;28;20050;-75
2023/09/08 01:08:38;;;;;;;2.03;1.10;;;;;;;25.41;39.08;100899.47;5000928;28;20421;-77
2023/09/08 01:11:07;;;;;;;4.85;0.80;;;;;;;25.38;38.50;100900.44;4994073;28;20053;-76
2023/09/08 01:13:35;;;;;;;2.50;0.73;;;;;;;25.31;39.10;100905.94;4995424;28;20144;-78
2023/09/08 01:16:04;;;;;;;1.65;0.80;;;;;;;25.26;39.33;100909.59;4997821;28;20049;-75
2023/09/08 01:18:34;;;;;;;2.58;0.60;;;;;;;25.24;40.44;100906.16;5000418;28;20809;-75
2023/09/08 01:21:37;;;;;;;1.20;0.52;;;;;;;25.21;39.39;100908.88;5011683;28;20064;-76
2023/09/08 01:24:16;;;;;;;;;;;;;;;25.21;40.04;100916.81;5001685;28;20058;-76
2023/09/08 01:26:47;;;;;;;1.85;0.70;;;;;;;25.19;39.38;100908.03;5004197;28;19925;-77
2023/09/08 01:29:17;;;;;;;0.82;0.50;;;;;;;25.16;40.72;100910.75;5000687;28;20062;-75
2023/09/08 01:31:46;;;;;;;0.90;0.70;;;;;;;25.14;39.40;100912.56;5010804;28;20053;-76
2023/09/08 01:34:16;;;;;;;1.20;0.70;;;;;;;25.11;39.51;100902.06;4999754;28;20061;-77
2023/09/08 01:36:44;;;;;;;1.08;0.73;;;;;;;25.07;39.84;100911.00;5011258;28;20108;-77
2023/09/08 01:39:13;;;;;;;1.55;0.73;;;;;;;25.04;39.60;100911.09;4996027;28;20050;-77
2023/09/08 01:41:42;;;;;;;2.25;0.85;;;;;;;24.98;40.11;100912.13;5001933;28;20045;-76
2023/09/08 01:44:12;;;;;;;2.92;0.68;;;;;;;24.94;40.64;100909.59;5017073;28;20064;-77
2023/09/08 01:46:40;;;;;;;1.20;0.70;;;;;;;24.84;39.24;100909.88;4994939;28;20051;-77
2023/09/08 01:49:09;;;;;;;1.40;0.47;;;;;;;24.77;40.53;100910.09;5003422;28;20060;-79
2023/09/08 01:51:41;;;;;;;1.25;0.70;;;;;;;24.73;40.14;100906.63;4998259;28;20077;-79
2023/09/08 01:54:09;;;;;;;2.25;0.80;;;;;;;24.68;39.86;100911.19;5000511;28;20061;-78
2023/09/08 01:56:38;;;;;;;1.02;0.60;;;;;;;24.65;40.46;100908.63;4993492;28;20603;-79
2023/09/08 01:59:06;;;;;;;3.08;0.73;;;;;;;24.60;40.08;100910.50;4995734;28;20061;-79
2023/09/08 02:01:39;;;;;;;5.45;0.73;;;;;;;24.55;40.70;100913.28;4998484;28;20046;-79
2023/09/08 02:04:08;;;;;;;4.55;0.85;;;;;;;24.50;40.75;100907.25;4995032;28;20101;-77
2023/09/08 02:06:36;;;;;;;2.50;0.80;;;;;;;24.46;40.69;100913.47;5002511;28;20049;-78
2023/09/08 02:09:05;;;;;;;1.90;0.60;;;;;;;24.37;40.86;100914.59;5000324;28;20050;-76
2023/09/08 02:11:34;;;;;;;4.07;0.80;;;;;;;24.31;39.90;100914.75;4994693;28;20046;-78
2023/09/08 02:14:02;;;;;;;1.88;0.70;;;;;;;24.24;40.80;100910.53;5000899;28;20609;-77
2023/09/08 02:16:31;;;;;;;2.40;0.70;;;;;;;24.16;42.13;100915.97;4996607;28;20053;-77
2023/09/08 02:19:01;;;;;;;1.75;0.60;;;;;;;24.10;41.72;100915.25;5003231;28;20054;-80
2023/09/08 02:21:29;;;;;;;2.25;0.60;;;;;;;24.01;40.71;100919.88;5008791;28;20855;-79
2023/09/08 02:23:59;;;;;;;3.20;0.60;;;;;;;23.98;40.98;100919.97;4996308;28;20394;-78
2023/09/08 02:26:29;;;;;;;2.78;0.85;;;;;;;23.93;41.08;100921.81;5003427;28;20042;-78
2023/09/08 02:28:57;;;;;;;5.53;0.80;;;;;;;23.89;41.49;100924.56;5003665;28;20064;-77
2023/09/08 02:31:26;;;;;;;2.67;0.80;;;;;;;23.81;41.80;100936.19;5016046;28;20057;-77
2023/09/08 02:33:55;;;;;;;1.70;0.90;;;;;;;23.75;41.55;100938.09;5006742;28;20182;-79
2023/09/08 02:36:34;;;;;;;1.75;0.77;;;;;;;23.69;41.03;100935.56;5014205;28;20049;-75
2023/09/08 02:39:03;;;;;;;1.83;1.20;;;;;;;23.52;40.75;100926.22;4991304;28;20177;-72
2023/09/08 02:41:31;;;;;;;0.80;0.60;;;;;;;23.48;40.27;100940.41;4997093;28;20488;-74
2023/09/08 02:44:00;;;;;;;1.23;0.60;;;;;;;23.44;40.70;100948.44;5021367;28;20045;-76
2023/09/08 02:46:29;;;;;;;1.65;0.60;;;;;;;23.36;40.77;100938.00;4996255;28;20053;-72
2023/09/08 02:49:01;;;;;;;0.90;0.70;;;;;;;23.28;41.04;100942.59;5006384;28;20045;-75
2023/09/08 02:51:31;;;;;;;0.63;0.60;;;;;;;23.19;41.76;100947.13;5001674;28;20057;-73
2023/09/08 02:53:59;;;;;;;1.63;0.60;;;;;;;23.09;41.81;100945.59;5002631;28;20057;-75
2023/09/08 02:56:28;;;;;;;3.30;0.85;;;;;;;23.00;42.04;100951.91;5003699;28;20413;-75
2023/09/08 02:58:56;;;;;;;0.85;0.80;;;;;;;22.95;42.35;100944.94;5001298;28;20058;-75
2023/09/08 03:01:25;;;;;;;1.40;0.90;;;;;;;22.85;42.63;100951.28;5002268;28;20538;-75
2023/09/08 03:03:54;;;;;;;1.15;0.80;;;;;;;22.78;42.95;100961.06;5007491;28;20053;-73
2023/09/08 03:06:22;;;;;;;1.55;0.70;;;;;;;22.69;42.81;100963.88;4997000;28;20101;-71
2023/09/08 03:08:53;;;;;;;1.00;0.70;;;;;;;22.60;43.67;100964.91;5002839;28;20534;-76
2023/09/08 03:11:21;;;;;;;2.28;1.10;;;;;;;22.58;43.77;100980.75;5004859;28;20042;-74
2023/09/08 03:13:50;;;;;;;2.95;0.90;;;;;;;22.50;44.12;100982.66;4997335;28;20201;-75
2023/09/08 03:16:19;;;;;;;5.32;1.13;;;;;;;22.46;45.83;100990.63;5008428;28;20586;-78
2023/09/08 03:18:47;;;;;;;1.73;0.90;;;;;;;22.39;45.13;100989.84;5004127;28;20069;-76
2023/09/08 03:21:17;;;;;;;1.65;0.77;;;;;;;22.33;45.61;100995.22;5003578;28;20061;-77
2023/09/08 03:23:49;;;;;;;3.60;0.80;;;;;;;22.21;46.45;101005.91;4996550;28;20057;-77
2023/09/08 03:26:19;;;;;;;2.85;0.90;;;;;;;22.13;46.13;101006.03;5002801;28;20112;-76
2023/09/08 03:28:53;;;;;;;2.00;0.95;;;;;;;22.05;46.21;101011.41;5004479;28;20046;-77
2023/09/08 03:31:31;;;;;;;2.55;1.38;;;;;;;21.96;46.34;101016.78;5005372;28;20042;-75
2023/09/08 03:34:00;;;;;;;3.15;0.93;;;;;;;21.90;46.46;101017.75;5004895;28;20104;-78
2023/09/08 03:36:29;;;;;;;1.52;0.88;;;;;;;21.83;47.15;101025.75;5004170;28;20050;-77
2023/09/08 03:38:58;;;;;;;1.17;0.80;;;;;;;21.75;47.12;101024.09;5004049;28;20512;-76
2023/09/08 03:41:29;;;;;;;1.15;0.80;;;;;;;21.71;47.74;101029.41;5001962;28;20416;-77
2023/09/08 03:43:58;;;;;;;5.30;0.93;;;;;;;21.67;46.81;101025.97;4996998;28;20053;-76
2023/09/08 03:46:26;;;;;;;0.80;0.63;;;;;;;21.66;45.29;101034.72;5002459;28;20137;-71
2023/09/08 03:49:00;;;;;;;2.45;0.88;;;;;;;21.66;45.07;101034.72;5005148;28;20070;-74
2023/09/08 03:51:29;;;;;;;1.02;0.65;;;;;;;21.65;46.74;101046.16;4993438;28;20533;-74
2023/09/08 03:53:57;;;;;;;1.52;0.70;;;;;;;21.61;48.53;101049.72;5001326;28;20057;-75
2023/09/08 03:56:27;;;;;;;3.90;0.70;;;;;;;21.58;48.24;101054.13;5002244;28;20198;-73
2023/09/08 03:58:56;;;;;;;1.63;0.70;;;;;;;21.48;45.97;101050.75;5005854;28;20603;-74
2023/09/08 04:01:26;;;;;;;1.10;0.75;;;;;;;21.41;47.30;101055.19;5006937;28;20049;-75
2023/09/08 04:03:54;;;;;;;0.93;0.75;;;;;;;21.38;44.98;101049.94;5005535;28;20065;-74
2023/09/08 04:06:24;;;;;;;1.08;0.60;;;;;;;21.36;45.61;101056.13;5000383;28;20060;-76
2023/09/08 04:08:52;;;;;;;1.98;0.70;;;;;;;21.33;46.01;101057.88;5002223;28;20046;-75
2023/09/08 04:11:21;;;;;;;2.00;0.70;;;;;;;21.30;45.48;101057.03;5001735;28;20054;-72
2023/09/08 04:13:51;;;;;;;2.67;0.90;;;;;;;21.26;48.85;101060.59;5005300;28;20054;-76
2023/09/08 04:16:19;;;;;;;1.50;0.80;;;;;;;21.24;47.13;101065.00;4997139;28;20054;-73
2023/09/08 04:18:48;;;;;;;2.30;0.93;;;;;;;21.18;46.35;101059.78;5002743;28;20308;-74
2023/09/08 04:21:16;;;;;;;2.15;0.75;;;;;;;21.07;47.04;101065.13;5003260;28;20053;-78
2023/09/08 04:23:45;;;;;;;3.55;1.00;;;;;;;20.97;48.55;101059.09;5013128;28;20499;-74
2023/09/08 04:26:17;;;;;;;3.00;0.80;;;;;;;20.87;48.40;101063.56;5005282;28;20104;-77
2023/09/08 04:28:45;;;;;;;0.88;0.57;;;;;;;20.76;46.01;101059.28;5009520;28;20060;-73
2023/09/08 04:31:16;;;;;;;2.00;0.70;;;;;;;20.67;50.64;101066.34;5001553;28;20144;-76
2023/09/08 04:33:45;;;;;;;1.27;0.63;;;;;;;20.57;49.31;101064.69;5009583;28;20050;-75
2023/09/08 04:36:13;;;;;;;1.23;0.55;;;;;;;20.48;49.04;101065.56;5007844;28;20057;-75
2023/09/08 04:38:44;;;;;;;1.33;0.80;;;;;;;20.38;49.59;101066.50;5007373;28;20045;-77
2023/09/08 04:41:13;;;;;;;2.00;0.90;;;;;;;20.24;49.24;101061.31;5011341;28;20085;-76
2023/09/08 04:43:41;;;;;;;1.35;0.50;;;;;;;20.18;49.04;101055.22;5009270;28;20383;-74
2023/09/08 04:46:10;;;;;;;2.33;0.70;;;;;;;20.12;50.92;101066.66;5006877;28;20053;-77
2023/09/08 04:48:40;;;;;;;1.17;0.70;;;;;;;20.08;50.53;101064.91;5016435;28;20085;-76
2023/09/08 04:51:11;;;;;;;0.90;0.50;;;;;;;20.01;50.40;101071.06;5012304;28;20524;-74
2023/09/08 04:53:39;;;;;;;2.08;0.70;;;;;;;19.96;50.16;101067.59;4990539;28;20046;-75
2023/09/08 04:56:08;;;;;;;1.10;0.60;;;;;;;19.90;50.10;101072.88;4999694;28;20112;-75
2023/09/08 04:58:37;;;;;;;2.05;0.77;;;;;;;19.84;49.84;101071.16;5001013;28;20076;-77
2023/09/08 05:01:07;;;;;;;1.50;0.60;;;;;;;19.78;49.38;101072.03;5002595;28;20053;-76
2023/09/08 05:03:36;;;;;;;1.33;0.70;;;;;;;19.70;50.01;101072.94;5001389;28;20515;-74
2023/09/08 05:06:06;;;;;;;1.13;0.70;;;;;;;19.61;50.58;101077.31;5003322;28;20487;-77
2023/09/08 05:08:35;;;;;;;1.60;0.70;;;;;;;19.49;50.17;101076.47;5005708;28;20057;-74
2023/09/08 05:11:03;;;;;;;0.73;0.40;;;;;;;19.40;50.43;101080.88;5000787;28;20801;-73
2023/09/08 05:13:32;;;;;;;0.65;0.50;;;;;;;19.30;50.24;101084.38;5004771;28;20556;-74
2023/09/08 05:16:11;;;;;;;0.75;0.45;;;;;;;19.23;50.33;101085.25;5004714;28;20050;-74
2023/09/08 05:18:40;;;;;;;0.80;0.38;;;;;;;19.20;50.71;101082.63;4995455;28;20559;-78
2023/09/08 05:21:10;;;;;;;0.40;0.40;;;;;;;19.18;50.29;101084.38;5002856;28;20066;-74
2023/09/08 05:23:41;;;;;;;2.38;0.60;;;;;;;19.11;51.04;101087.88;4999747;28;20057;-75
2023/09/08 05:26:09;;;;;;;1.55;0.47;;;;;;;19.00;50.76;101086.13;5009822;28;20045;-71
2023/09/08 05:28:38;;;;;;;1.33;0.50;;;;;;;18.87;51.78;101089.59;4997044;28;20039;-74
2023/09/08 05:31:07;;;;;;;0.40;0.40;;;;;;;18.85;51.87;101091.34;5015513;28;20045;-74
2023/09/08 05:33:36;;;;;;;0.57;0.40;;;;;;;18.82;51.71;101089.59;5009859;28;20700;-75
2023/09/08 05:36:04;;;;;;;1.15;0.70;;;;;;;18.79;51.84;101086.13;5007343;28;20121;-76
2023/09/08 05:38:35;;;;;;;0.50;0.40;;;;;;;18.76;52.50;101086.06;5001052;28;20049;-76
2023/09/08 05:41:03;;;;;;;1.92;0.68;;;;;;;18.71;53.76;101085.19;4999975;28;20050;-77
2023/09/08 05:43:32;;;;;;;2.78;0.60;;;;;;;18.70;54.08;101089.56;5014827;28;20049;-75
2023/09/08 05:46:03;;;;;;;1.17;0.68;;;;;;;18.69;54.10;101086.94;5001939;28;20058;-75
2023/09/08 05:48:33;;;;;;;1.30;0.47;;;;;;;18.66;54.45;101089.56;4999750;28;20105;-75
2023/09/08 05:51:02;;;;;;;0.70;0.40;;;;;;;18.62;55.58;101086.94;4994168;28;20047;-73
2023/09/08 05:53:31;;;;;;;0.88;0.40;;;;;;;18.58;53.96;101082.56;5006161;28;20051;-74
2023/09/08 05:56:04;;;;;;;1.63;0.45;;;;;;;18.52;54.31;101089.53;4996354;28;20050;-73
2023/09/08 05:58:33;;;;;;;0.90;0.47;;;;;;;18.49;54.08;101086.94;5007646;28;20127;-77
2023/09/08 06:01:02;;;;;;;2.22;0.75;;;;;;;18.50;54.83;101089.53;5003681;28;20108;-72
2023/09/08 06:03:34;;;;;;;0.98;0.68;;;;;;;18.50;54.73;101093.91;5003771;28;20115;-78
2023/09/08 06:06:07;;;;;;;3.60;0.50;;;;;;;18.47;54.75;101094.78;5006073;28;20049;-76
2023/09/08 06:08:36;;;;;;;1.85;0.60;;;;;;;18.43;55.34;101095.63;4998229;28;20472;-78
2023/09/08 06:11:09;;;;;;;0.75;0.52;;;;;;;18.39;54.80;101094.75;4994411;28;20050;-79
2023/09/08 06:13:37;;;;;;;2.83;0.50;;;;;;;18.37;54.98;101091.25;5002017;28;20133;-78
2023/09/08 06:16:12;;;;;;;1.05;0.47;;;;;;;18.35;54.37;101094.75;4993907;28;20647;-77
2023/09/08 06:18:44;;;;;;;0.70;0.50;;;;;;;18.29;54.76;101099.97;5006479;28;20062;-77
2023/09/08 06:21:13;;;;;;;1.42;0.70;;;;;;;18.26;55.68;101098.22;5002513;28;20062;-76
2023/09/08 06:23:43;;;;;;;0.68;0.50;;;;;;;18.24;55.73;101104.31;5002833;28;20069;-80
2023/09/08 06:26:20;;;;;;;1.85;0.68;;;;;;;18.18;55.72;101098.16;4993467;28;20057;-78
2023/09/08 06:28:48;;;;;;;0.50;0.40;;;;;;;18.13;56.27;101105.13;4995959;28;20054;-79
2023/09/08 06:31:17;;;;;;;1.95;0.70;;;;;;;18.10;56.59;101112.13;5012532;28;20046;-77
2023/09/08 06:33:45;;;;;;;1.80;0.75;;;;;;;18.04;54.99;101107.72;5003146;28;20045;-76
2023/09/08 06:36:14;;;;;;;0.93;0.50;;;;;;;17.97;55.64;101112.03;5004674;28;20583;-78
2023/09/08 06:38:43;;;;;;;0.45;0.40;;;;;;;17.93;56.34;101112.03;4998919;28;20141;-77
2023/09/08 06:41:12;;;;;;;2.88;0.70;;;;;;;17.90;56.07;101120.75;4994687;28;20053;-73
2023/09/08 06:43:42;;;;;;;1.52;0.60;;;;;;;17.91;56.03;101124.22;5012080;28;20472;-79
2023/09/08 06:46:11;;;;;;;2.45;0.65;;;;;;;17.89;56.79;101120.72;5003038;28;20440;-78
2023/09/08 06:48:40;;;;;;;1.60;0.43;;;;;;;17.86;57.52;101126.81;4989397;28;20056;-75
2023/09/08 06:51:09;;;;;;;0.70;0.57;;;;;;;17.79;57.39;101131.09;4997784;28;20133;-75
2023/09/08 06:53:38;;;;;;;2.40;0.60;;;;;;;17.72;58.45;101129.31;4999563;28;20437;-78
2023/09/08 06:56:07;;;;;;;0.95;0.60;;;;;;;17.66;57.50;101129.31;4993690;28;20046;-74
2023/09/08 06:58:38;;;;;;;0.82;0.57;;;;;;;17.62;57.60;101130.16;5000233;28;20548;-75
2023/09/08 07:01:08;;;;;;;0.88;0.50;;;;;;;17.59;59.12;101136.25;4999147;28;20101;-76
2023/09/08 07:03:37;;;;;;;1.33;0.50;;;;;;;17.56;59.27;101130.09;5004852;28;20932;-76
2023/09/08 07:06:06;;;;;;;1.55;0.60;;;;;;;17.58;60.16;101131.00;4999976;28;20207;-77
2023/09/08 07:08:34;;;;;;;1.65;0.50;;;;;;;17.58;59.91;101141.47;4998888;28;20061;-77
2023/09/08 07:11:06;;;;;;;1.02;0.60;;;;;;;17.49;59.08;101137.03;4993052;28;20520;-76
2023/09/08 07:13:34;;;;;;;2.42;0.98;;;;;;;17.47;59.61;101140.50;4998677;28;20065;-77
2023/09/08 07:16:03;;;;;;;0.38;0.38;;;;;;;17.45;59.36;101152.69;5006791;28;20443;-80
2023/09/08 07:18:35;;;;;;;1.20;0.82;;;;;;;17.42;58.63;101150.94;5007272;28;20054;-77
2023/09/08 07:21:04;;;;;;;2.70;0.80;;;;;;;17.37;59.79;101145.66;5005525;28;20132;-78
2023/09/08 07:23:33;;;;;;;0.82;0.50;;;;;;;17.38;58.86;101149.16;5001795;28;20153;-77
2023/09/08 07:26:02;;;;;;;2.65;0.60;;;;;;;17.30;58.96;101151.72;5003617;28;20177;-74
2023/09/08 07:28:36;;;;;;;1.02;0.50;;;;;;;17.25;58.64;101152.53;5002996;28;20050;-77
2023/09/08 07:31:09;;;;;;;1.08;0.50;;;;;;;17.25;60.49;101153.44;5004631;28;20522;-77
2023/09/08 07:33:39;;;;;;;1.92;0.75;;;;;;;17.25;61.11;101156.03;5025411;28;20058;-78
2023/09/08 07:36:08;;;;;;;1.38;0.68;;;;;;;17.23;61.21;101165.59;5000805;28;20038;-79
2023/09/08 07:38:37;;;;;;;1.13;0.77;;;;;;;17.14;61.07;101161.16;5005042;28;20057;-78
2023/09/08 07:41:05;;;;;;;1.65;0.75;;;;;;;17.18;60.67;101169.94;5014234;28;20053;-79
2023/09/08 07:43:34;;;;;;;2.05;0.55;;;;;;;17.16;60.61;101169.91;5021262;28;20077;-78
2023/09/08 07:46:03;;;;;;;1.15;0.90;;;;;;;17.13;60.69;101175.13;5023386;28;20046;-79
2023/09/08 07:48:31;;;;;;;1.23;0.80;;;;;;;17.10;61.14;101164.59;5028374;28;20030;-78
2023/09/08 07:51:02;;;;;;;0.80;0.55;;;;;;;17.08;60.34;101171.56;5025828;28;20072;-78
2023/09/08 07:53:36;;;;;;;1.08;0.40;;;;;;;17.04;60.34;101172.41;5015652;28;20056;-77
2023/09/08 07:56:05;;;;;;;2.17;0.80;;;;;;;17.01;60.96;101174.09;5020102;28;20085;-77
2023/09/08 07:58:34;;;;;;;0.80;0.60;;;;;;;16.95;60.67;101173.19;5001923;28;20043;-78
2023/09/08 08:01:03;;;;;;;0.93;0.63;;;;;;;16.92;61.02;101178.38;4997578;28;20058;-78
2023/09/08 08:03:32;;;;;;;4.88;0.80;;;;;;;16.89;60.68;101175.75;4990958;28;20050;-78
2023/09/08 08:06:02;;;;;;;0.70;0.50;;;;;;;16.85;60.72;101173.06;5001931;28;20069;-78
2023/09/08 08:08:31;;;;;;;2.92;0.65;;;;;;;16.80;60.98;101174.78;5003782;28;20050;-78
2023/09/08 08:10:59;;;;;;;1.52;0.60;;;;;;;16.75;61.47;101179.91;5001180;28;20715;-77
2023/09/08 08:13:28;;;;;;;1.95;0.73;;;;;;;16.73;62.04;101173.78;5001196;28;20545;-77
2023/09/08 08:15:56;;;;;;;2.20;1.25;;;;;;;16.64;62.90;101164.13;5003472;28;20140;-78
2023/09/08 08:18:25;;;;;;;1.33;0.90;;;;;;;16.64;63.70;101173.69;4997161;28;20052;-77
2023/09/08 08:20:54;;;;;;;3.38;0.60;;;;;;;16.60;64.00;101172.78;4999783;28;20431;-77
2023/09/08 08:23:24;;;;;;;2.60;0.52;;;;;;;16.56;64.69;101181.47;5001841;28;20050;-76
2023/09/08 08:25:53;;;;;;;1.25;0.80;;;;;;;16.54;64.39;101178.81;5009930;28;20054;-77
2023/09/08 08:28:23;;;;;;;1.02;0.65;;;;;;;16.46;63.92;101167.38;4999686;28;20508;-78
2023/09/08 08:30:52;;;;;;;2.20;0.60;;;;;;;16.49;64.03;101180.50;5005217;28;20045;-78
2023/09/08 08:33:22;;;;;;;1.10;0.50;;;;;;;16.46;64.72;101180.44;5001316;28;20054;-77
2023/09/08 08:35:54;;;;;;;1.58;0.73;;;;;;;16.40;64.90;101183.00;5009099;28;20487;-77
2023/09/08 08:38:27;;;;;;;0.70;0.50;;;;;;;16.39;65.10;101183.84;5005472;28;20073;-76
2023/09/08 08:40:55;;;;;;;1.27;0.80;;;;;;;16.33;65.25;101183.75;5002158;28;20057;-77
2023/09/08 08:43:26;;;;;;;1.30;0.68;;;;;;;16.27;65.66;101178.47;5007178;28;20571;-78
2023/09/08 08:45:55;;;;;;;3.63;0.50;;;;;;;16.21;65.76;101187.09;5001341;28;20076;-78
2023/09/08 08:48:31;;;;;;;0.93;0.65;;;;;;;16.15;65.68;101183.50;5002327;28;20056;-76
2023/09/08 08:51:00;;;;;;;1.38;0.57;;;;;;;16.07;65.69;101189.50;5005183;28;20056;-76
2023/09/08 08:53:32;;;;;;;2.17;0.80;;;;;;;16.03;66.38;101192.06;5003775;28;20081;-77
2023/09/08 08:56:01;;;;;;;;;;;;;;;16.01;66.62;101193.78;5006535;28;20054;-77
2023/09/08 08:58:34;;;;;;;1.65;0.90;;;;;;;15.99;66.87;101199.00;5006979;28;20060;-76
2023/09/08 09:01:03;;;;;;;1.77;0.90;;;;;;;15.95;67.45;101193.69;5001287;28;20050;-77
2023/09/08 09:03:34;;;;;;;1.10;0.65;;;;;;;15.90;66.33;101199.72;5003076;28;20104;-78
2023/09/08 09:06:03;;;;;;;2.10;0.70;;;;;;;15.87;67.26;101190.97;5005877;28;20053;-77
2023/09/08 09:08:35;;;;;;;1.30;0.52;;;;;;;15.86;66.72;101197.03;5007152;28;20100;-78
2023/09/08 09:11:04;;;;;;;4.22;0.60;;;;;;;15.83;66.34;101197.88;4997422;28;20105;-78
2023/09/08 09:13:32;;;;;;;0.88;0.70;;;;;;;15.80;66.96;101197.81;5000590;28;20515;-78
2023/09/08 09:16:10;;;;;;;7.85;1.10;;;;;;;15.70;67.04;101181.16;5008156;28;20054;-78
2023/09/08 09:18:56;;;;;;;2.78;0.68;;;;;;;15.75;67.26;101190.78;5007116;28;20144;-78
2023/09/08 09:21:51;;;;;;;2.03;1.10;;;;;;;15.72;67.35;101198.56;5005566;28;20595;-78
2023/09/08 09:24:32;;;;;;;1.83;0.60;;;;;;;15.68;67.24;101192.38;5006326;28;20053;-78
2023/09/08 09:27:01;;;;;;;1.02;0.75;;;;;;;15.60;66.87;101192.28;5003717;28;20531;-78
2023/09/08 09:29:30;;;;;;;1.90;0.80;;;;;;;15.54;67.94;101186.97;5002943;28;20496;-78
2023/09/08 09:32:04;;;;;;;0.93;0.75;;;;;;;15.51;68.22;101194.75;5002709;28;20500;-78
2023/09/08 09:34:32;;;;;;;1.00;0.57;;;;;;;15.44;68.28;101188.53;5003344;28;20041;-79
2023/09/08 09:37:01;;;;;;;3.40;0.90;;;;;;;15.43;68.33;101202.41;4999926;28;20525;-78
2023/09/08 09:39:31;;;;;;;1.42;0.70;;;;;;;15.41;69.26;101195.44;4996997;28;20046;-78
2023/09/08 09:42:00;;;;;;;0.85;0.63;;;;;;;15.38;70.04;101203.22;5005009;28;20049;-77
2023/09/08 09:44:28;;;;;;;2.22;0.70;;;;;;;15.38;72.10;101203.22;5004470;28;20290;-76
2023/09/08 09:47:02;;;;;;;2.80;0.70;;;;;;;15.33;74.89;101205.75;5004973;28;20113;-76
2023/09/08 09:49:31;;;;;;;2.40;0.82;;;;;;;15.21;73.61;101203.81;5001974;28;20077;-76
2023/09/08 09:52:00;;;;;;;1.50;0.63;;;;;;;15.23;72.82;101215.13;5005718;28;20045;-76
2023/09/08 09:54:37;;;;;;;2.38;0.70;;;;;;;15.20;72.22;101217.66;4998020;28;20517;-77
2023/09/08 09:57:06;;;;;;;1.35;0.63;;;;;;;15.20;71.62;101216.78;5002244;28;20049;-78
2023/09/08 09:59:36;;;;;;;1.02;0.60;;;;;;;15.19;71.62;101218.53;5003060;28;20072;-77
2023/09/08 10:02:05;;;;;;;1.20;0.73;;;;;;;15.21;72.00;101215.94;5007019;28;20053;-77
2023/09/08 10:04:34;;;;;;;2.42;0.52;;;;;;;15.22;72.08;101220.31;5009848;28;20046;-76
2023/09/08 10:07:02;;;;;;;1.17;0.82;;;;;;;15.23;71.46;101220.34;5002690;28;20732;-77
2023/09/08 10:09:32;;;;;;;3.97;0.73;;;;;;;15.23;71.92;101220.34;5007486;28;20088;-77
2023/09/08 10:12:05;;;;;;;0.70;0.70;;;;;;;15.22;70.87;101223.78;5005093;28;20076;-78
2023/09/08 10:14:38;;;;;;;1.23;0.70;;;;;;;15.19;72.30;101226.34;5008272;28;20045;-76
2023/09/08 10:17:10;;;;;;;2.80;0.65;;;;;;;15.17;75.07;101229.78;5006905;28;20141;-76
2023/09/08 10:19:41;;;;;;;2.10;1.02;;;;;;;15.17;76.07;101229.78;5007855;28;20073;-77
2023/09/08 10:22:17;;;;;;;4.72;0.70;;;;;;;15.18;75.99;101227.19;5013789;28;20595;-78
2023/09/08 10:24:50;;;;;;;0.85;0.60;;;;;;;15.19;74.59;101228.09;5011721;28;20069;-78
2023/09/08 10:27:21;;;;;;;4.47;0.93;;;;;;;15.20;74.92;101230.69;5006028;28;20053;-78
2023/09/08 10:29:50;;;;;;;1.10;0.80;;;;;;;15.18;74.87;101228.91;5013408;28;20049;-79
2023/09/08 10:32:19;;;;;;;0.98;0.82;;;;;;;15.13;73.58;101228.84;5022424;28;20536;-78
2023/09/08 10:34:51;;;;;;;3.92;0.70;;;;;;;15.10;74.38;101228.78;5030392;28;20042;-77
2023/09/08 10:37:24;;;;;;;0.68;0.60;;;;;;;15.08;74.90;101231.34;5026470;28;20068;-78
2023/09/08 10:39:54;;;;;;;1.00;0.70;;;;;;;15.05;73.72;101220.03;5023820;28;20041;-79
2023/09/08 10:42:30;;;;;;;1.30;0.85;;;;;;;15.02;74.17;101225.16;5022125;28;20046;-78
2023/09/08 10:45:04;;;;;;;3.10;0.90;;;;;;;14.99;74.39;101223.38;5012192;28;20053;-78
2023/09/08 10:47:56;;;;;;;1.80;0.80;;;;;;;14.95;74.57;101223.28;4991165;28;20050;-77
2023/09/08 10:50:32;;;;;;;1.58;0.52;;;;;;;14.92;75.03;101218.91;5010600;28;20112;-76
2023/09/08 10:53:12;;;;;;;1.52;0.80;;;;;;;14.93;74.92;101224.97;5005697;28;20049;-76
2023/09/08 10:55:50;;;;;;;3.03;1.02;;;;;;;14.94;75.73;101221.53;5006203;28;20065;-78
2023/09/08 10:58:30;;;;;;;0.82;0.70;;;;;;;14.94;74.99;101217.19;5003840;28;20061;-77
2023/09/08 11:01:02;;;;;;;2.03;0.82;;;;;;;14.92;75.77;101223.22;5004257;28;20058;-75
2023/09/08 11:03:46;;;;;;;2.05;0.80;;;;;;;14.86;76.74;101230.06;5004076;28;20049;-77
2023/09/08 11:06:17;;;;;;;2.22;0.98;;;;;;;14.85;76.89;101228.31;5005115;28;20053;-78
2023/09/08 11:08:47;;;;;;;2.78;0.88;;;;;;;14.85;76.49;101230.91;5007586;28;20077;-77
2023/09/08 11:11:18;;;;;;;1.10;0.70;;;;;;;14.83;76.25;101230.00;5004757;28;20041;-78
2023/09/08 11:13:47;;;;;;;4.32;0.73;;;;;;;14.81;76.41;101229.09;5007463;28;20484;-75
2023/09/08 11:16:21;;;;;;;1.35;0.60;;;;;;;14.77;76.76;101227.28;5000849;28;20069;-77
2023/09/08 11:18:52;;;;;;;1.23;0.80;;;;;;;14.76;76.66;101232.47;5005008;28;20116;-78
2023/09/08 11:21:21;;;;;;;1.75;0.88;;;;;;;14.73;76.02;101233.28;5003278;28;20492;-77
2023/09/08 11:23:50;;;;;;;0.80;0.77;;;;;;;14.71;77.12;101237.59;5004538;28;20053;-77
2023/09/08 11:26:20;;;;;;;2.03;0.85;;;;;;;14.69;76.94;101236.69;5003856;28;20445;-77
2023/09/08 11:28:49;;;;;;;2.10;0.73;;;;;;;14.65;77.21;101227.03;5002045;28;20099;-77
2023/09/08 11:31:18;;;;;;;1.92;0.90;;;;;;;14.62;77.31;101227.00;5000635;28;20058;-78
2023/09/08 11:33:51;;;;;;;1.17;0.70;;;;;;;14.59;77.28;101229.50;5002378;28;20096;-77
2023/09/08 11:36:19;;;;;;;;;;;;;;;14.58;77.61;101228.63;5003934;28;20045;-76
2023/09/08 11:38:47;;;;;;;3.10;0.93;;;;;;;14.53;77.03;101231.97;5002840;28;19922;-76
2023/09/08 11:41:16;;;;;;;2.08;0.68;;;;;;;14.48;77.77;101231.88;5003313;28;20046;-77